Time;durP1;ratioP1;P1;durP2;ratioP2;P2;SDS_P1;SDS_P2;PMS_P1;PMS_P2;Temp;Humidity;BMP_temperature;BMP_pressure;BME280_temperature;BME280_humidity;BME280_pressure;Samples;Min_cycle;Max_cycle;Signal;HPM_P1;HPM_P2
2022/09/29 19:58:38;;;;;;;4.70;2.80;;;19.00;94.60;;;;;;5087860;28;20964;-70
2022/09/29 20:01:06;;;;;;;3.40;3.10;;;19.00;96.10;;;;;;5089372;28;20948;-69
2022/09/29 20:03:33;;;;;;;4.47;3.13;;;19.00;96.10;;;;;;5089666;28;20467;-70
2022/09/29 20:06:00;;;;;;;3.50;3.20;;;19.10;95.90;;;;;;5079249;28;20947;-69
2022/09/29 20:08:28;;;;;;;2.90;2.70;;;19.20;96.00;;;;;;5090361;28;20426;-68
2022/09/29 20:10:55;;;;;;;4.50;3.27;;;19.20;95.80;;;;;;5081583;28;20450;-68
2022/09/29 20:13:22;;;;;;;3.80;3.17;;;19.30;95.40;;;;;;5068846;28;20489;-67
2022/09/29 20:15:51;;;;;;;3.67;3.20;;;19.30;94.90;;;;;;5069160;28;20527;-67
2022/09/29 20:18:19;;;;;;;4.50;3.40;;;19.30;94.80;;;;;;5069127;28;20479;-67
2022/09/29 20:20:50;;;;;;;3.57;3.27;;;19.40;94.60;;;;;;5068944;28;20513;-67
2022/09/29 20:23:17;;;;;;;3.27;2.80;;;19.40;94.10;;;;;;5078850;28;20443;-68
2022/09/29 20:25:44;;;;;;;4.67;3.97;;;19.40;94.10;;;;;;5089257;28;20815;-69
2022/09/29 20:28:11;;;;;;;3.27;2.97;;;19.40;93.80;;;;;;5089041;28;20526;-70
2022/09/29 20:30:38;;;;;;;4.37;3.40;;;19.40;93.40;;;;;;5089451;28;20485;-70
2022/09/29 20:33:06;;;;;;;3.00;2.80;;;19.40;93.30;;;;;;5089189;28;20928;-70
2022/09/29 20:35:34;;;;;;;2.57;2.27;;;19.30;93.10;;;;;;5089127;28;20442;-69
2022/09/29 20:38:02;;;;;;;3.07;2.70;;;19.40;93.10;;;;;;5088228;28;20480;-69
2022/09/29 20:40:29;;;;;;;3.10;2.90;;;19.40;93.10;;;;;;5087986;28;20447;-71
2022/09/29 20:42:56;;;;;;;3.60;3.30;;;19.40;92.90;;;;;;5089630;28;20451;-67
2022/09/29 20:45:23;;;;;;;3.27;3.03;;;19.50;93.00;;;;;;5076771;28;20554;-66
2022/09/29 20:47:50;;;;;;;3.20;2.97;;;19.40;93.50;;;;;;5089093;28;20974;-66
2022/09/29 20:50:18;;;;;;;3.23;2.90;;;19.40;93.80;;;;;;5076533;28;20487;-64
2022/09/29 20:52:46;;;;;;;3.63;3.33;;;19.50;94.10;;;;;;5068678;28;20450;-67
2022/09/29 20:55:13;;;;;;;3.30;2.80;;;19.50;94.10;;;;;;5070045;28;20474;-65
2022/09/29 20:57:40;;;;;;;3.50;3.20;;;19.50;94.10;;;;;;5079163;28;20484;-65
2022/09/29 21:00:12;;;;;;;6.00;2.67;;;19.50;94.20;;;;;;5088266;28;20546;-66
2022/09/29 21:02:39;;;;;;;4.67;3.33;;;19.50;94.10;;;;;;5069272;28;20466;-66
2022/09/29 21:05:07;;;;;;;3.10;2.80;;;19.50;94.10;;;;;;5073831;28;20524;-65
2022/09/29 21:07:37;;;;;;;3.53;3.20;;;19.50;94.10;;;;;;5087763;28;20462;-67
2022/09/29 21:10:04;;;;;;;3.80;3.07;;;19.50;94.10;;;;;;5073997;28;20448;-65
2022/09/29 21:12:33;;;;;;;3.07;2.77;;;19.50;94.10;;;;;;5074461;28;20999;-66
2022/09/29 21:15:00;;;;;;;3.67;3.37;;;19.50;94.10;;;;;;5065244;28;20961;-68
2022/09/29 21:17:27;;;;;;;3.63;3.37;;;19.50;94.30;;;;;;5071925;28;20474;-68
2022/09/29 21:19:55;;;;;;;3.80;2.60;;;19.60;94.50;;;;;;5068015;28;20462;-68
2022/09/29 21:22:22;;;;;;;4.00;2.83;;;19.60;94.20;;;;;;5054511;28;20531;-68
2022/09/29 21:24:52;;;;;;;4.80;3.67;;;19.60;94.10;;;;;;5054576;28;20464;-67
2022/09/29 21:27:19;;;;;;;3.17;2.57;;;19.60;93.80;;;;;;5060821;28;20439;-66
2022/09/29 21:29:46;;;;;;;4.00;3.60;;;19.60;93.70;;;;;;5056954;28;20529;-64
2022/09/29 21:32:13;;;;;;;7.97;3.40;;;19.60;93.50;;;;;;5073099;28;20809;-64
2022/09/29 21:34:40;;;;;;;2.23;2.13;;;19.50;93.10;;;;;;5074427;28;20470;-64
2022/09/29 21:37:07;;;;;;;4.10;3.50;;;19.50;92.90;;;;;;5066418;28;20533;-64
2022/09/29 21:39:34;;;;;;;3.53;3.23;;;19.50;92.80;;;;;;5074638;28;20444;-64
2022/09/29 21:42:03;;;;;;;3.80;3.10;;;19.50;92.80;;;;;;5065124;28;20448;-65
2022/09/29 21:44:30;;;;;;;4.50;3.07;;;19.50;92.80;;;;;;5054959;28;20555;-63
2022/09/29 21:46:57;;;;;;;3.73;3.47;;;19.50;92.80;;;;;;5065786;28;20490;-64
2022/09/29 21:49:23;;;;;;;6.80;4.40;;;19.50;92.80;;;;;;5059923;28;20995;-64
2022/09/29 21:51:51;;;;;;;5.37;3.13;;;19.50;92.70;;;;;;5074693;28;20501;-64
2022/09/29 21:54:19;;;;;;;3.17;2.97;;;19.50;92.70;;;;;;5074230;28;21300;-64
2022/09/29 21:56:47;;;;;;;4.30;3.57;;;19.50;92.60;;;;;;5072044;28;20922;-64
2022/09/29 21:59:17;;;;;;;3.27;3.07;;;19.50;92.60;;;;;;5054006;28;20991;-64
2022/09/29 22:01:44;;;;;;;3.17;2.97;;;19.50;92.50;;;;;;5065249;28;20450;-64
2022/09/29 22:04:12;;;;;;;5.37;4.13;;;19.40;92.50;;;;;;5074203;28;20520;-64
2022/09/29 22:06:43;;;;;;;3.47;3.00;;;19.40;92.50;;;;;;5060220;28;20801;-64
2022/09/29 22:09:15;;;;;;;3.23;2.90;;;19.40;92.50;;;;;;5069077;28;20448;-64
2022/09/29 22:11:42;;;;;;;4.33;3.50;;;19.40;92.40;;;;;;5053381;28;20445;-64
2022/09/29 22:14:11;;;;;;;3.93;3.60;;;19.40;92.40;;;;;;5053457;28;20464;-64
2022/09/29 22:16:40;;;;;;;4.13;3.10;;;19.40;92.70;;;;;;5053515;28;20457;-64
2022/09/29 22:19:07;;;;;;;4.20;3.80;;;19.40;92.30;;;;;;5073720;28;20479;-63
2022/09/29 22:21:34;;;;;;;3.17;2.87;;;19.40;92.30;;;;;;5072736;28;20448;-63
2022/09/29 22:24:03;;;;;;;3.50;3.20;;;19.40;92.30;;;;;;5073513;28;20479;-63
2022/09/29 22:26:30;;;;;;;3.03;2.83;;;19.30;92.20;;;;;;5073496;28;20443;-63
2022/09/29 22:29:00;;;;;;;3.83;3.50;;;19.30;92.20;;;;;;5054402;28;20449;-63
2022/09/29 22:31:27;;;;;;;3.97;3.63;;;19.30;92.20;;;;;;5053938;28;20895;-63
2022/09/29 22:33:58;;;;;;;3.87;3.57;;;19.30;92.20;;;;;;5059423;28;20497;-63
2022/09/29 22:36:27;;;;;;;3.37;3.13;;;19.30;92.10;;;;;;5067073;28;20506;-63
2022/09/29 22:38:54;;;;;;;3.60;3.30;;;19.40;92.20;;;;;;5071756;28;20548;-63
2022/09/29 22:41:22;;;;;;;3.60;3.40;;;19.30;92.10;;;;;;5072985;28;20444;-62
2022/09/29 22:43:53;;;;;;;4.50;3.60;;;19.30;92.10;;;;;;5064971;28;20511;-63
2022/09/29 22:46:20;;;;;;;4.10;3.20;;;19.30;92.10;;;;;;5066008;28;20447;-63
2022/09/29 22:48:47;;;;;;;3.83;3.40;;;19.30;92.10;;;;;;5073142;28;20847;-63
2022/09/29 22:51:16;;;;;;;3.10;2.90;;;19.20;92.10;;;;;;5060508;28;20518;-63
2022/09/29 22:53:43;;;;;;;3.87;3.50;;;19.30;92.10;;;;;;5073520;28;20879;-63
2022/09/29 22:56:12;;;;;;;3.67;3.37;;;19.20;92.10;;;;;;5065267;28;20441;-63
2022/09/29 22:58:40;;;;;;;6.50;3.23;;;19.20;92.00;;;;;;5053234;28;20575;-64
2022/09/29 23:01:09;;;;;;;3.90;3.60;;;19.20;92.00;;;;;;5053330;28;20456;-64
2022/09/29 23:03:36;;;;;;;4.03;3.30;;;19.20;92.00;;;;;;5053157;28;20876;-63
2022/09/29 23:06:05;;;;;;;2.87;2.60;;;19.20;92.00;;;;;;5057178;28;20506;-64
2022/09/29 23:08:34;;;;;;;3.87;3.47;;;19.20;92.00;;;;;;5053231;28;20451;-64
2022/09/29 23:11:04;;;;;;;3.07;2.87;;;19.20;92.00;;;;;;5053021;28;20570;-64
2022/09/29 23:13:33;;;;;;;4.33;3.97;;;19.20;92.00;;;;;;5052890;28;20825;-64
2022/09/29 23:16:04;;;;;;;6.10;5.50;;;19.20;92.00;;;;;;5061715;28;20450;-64
2022/09/29 23:18:32;;;;;;;5.03;3.93;;;19.20;92.00;;;;;;5072700;28;20979;-64
2022/09/29 23:21:00;;;;;;;4.10;3.80;;;19.10;92.00;;;;;;5071952;28;20812;-64
2022/09/29 23:23:27;;;;;;;5.90;4.10;;;19.10;92.00;;;;;;5072225;28;20516;-64
2022/09/29 23:25:56;;;;;;;4.10;3.83;;;19.10;92.00;;;;;;5064015;28;20444;-64
2022/09/29 23:28:23;;;;;;;3.67;3.30;;;19.10;92.00;;;;;;5054223;28;20436;-63
2022/09/29 23:30:50;;;;;;;5.20;3.10;;;19.10;92.00;;;;;;5072130;28;20447;-64
2022/09/29 23:33:17;;;;;;;3.17;2.97;;;19.10;92.00;;;;;;5061605;28;20436;-64
2022/09/29 23:35:44;;;;;;;3.77;3.43;;;19.10;92.00;;;;;;5059740;28;20447;-64
2022/09/29 23:40:59;;;;;;;4.63;4.27;;;19.10;92.00;;;;;;5052319;28;20435;-64
2022/09/29 23:43:25;;;;;;;4.20;3.83;;;19.10;92.00;;;;;;5051749;28;20448;-64
2022/09/29 23:45:52;;;;;;;4.10;3.70;;;19.00;92.00;;;;;;5061776;28;20452;-64
2022/09/29 23:48:20;;;;;;;3.90;3.60;;;19.00;92.00;;;;;;5051858;28;21004;-64
2022/09/29 23:50:47;;;;;;;3.60;3.30;;;19.10;92.00;;;;;;5051887;28;20783;-64
2022/09/29 23:53:14;;;;;;;4.03;3.63;;;19.00;92.00;;;;;;5052521;28;20487;-64
2022/09/29 23:55:41;;;;;;;4.13;3.83;;;19.00;91.90;;;;;;5056997;28;20448;-64
2022/09/29 23:58:09;;;;;;;3.27;2.97;;;19.00;91.90;;;;;;5071220;28;20533;-64
